sensor_id;sensor_type;location;lat;lon;timestamp;pressure;altitude;pressure_sealevel;temperature;humidity
69171;BME280;56279;47.902;12.308;2023-05-10T00:00:31;94814.81;;;14.09;87.17
69171;BME280;56279;47.902;12.308;2023-05-10T00:02:32;94812.47;;;14.07;87.48
69171;BME280;56279;47.902;12.308;2023-05-10T00:04:33;94814.97;;;14.04;87.83
69171;BME280;56279;47.902;12.308;2023-05-10T00:06:34;94811.06;;;14.01;87.48
69171;BME280;56279;47.902;12.308;2023-05-10T00:08:36;94812.47;;;13.99;87.88
69171;BME280;56279;47.902;12.308;2023-05-10T00:10:37;94818.09;;;13.97;87.64
69171;BME280;56279;47.902;12.308;2023-05-10T00:12:39;94815.44;;;13.97;87.63
69171;BME280;56279;47.902;12.308;2023-05-10T00:14:40;94806.69;;;13.97;87.39
69171;BME280;56279;47.902;12.308;2023-05-10T00:16:41;94809.19;;;13.93;87.88
69171;BME280;56279;47.902;12.308;2023-05-10T00:18:43;94810.59;;;13.91;87.91
69171;BME280;56279;47.902;12.308;2023-05-10T00:20:44;94812.44;;;13.90;87.76
69171;BME280;56279;47.902;12.308;2023-05-10T00:22:46;94813.53;;;13.89;87.76
69171;BME280;56279;47.902;12.308;2023-05-10T00:24:48;94806.69;;;13.88;87.56
69171;BME280;56279;47.902;12.308;2023-05-10T00:26:49;94804.63;;;13.85;88.07
69171;BME280;56279;47.902;12.308;2023-05-10T00:28:50;94807.28;;;13.85;87.90
69171;BME280;56279;47.902;12.308;2023-05-10T00:30:52;94811.53;;;13.86;87.69
69171;BME280;56279;47.902;12.308;2023-05-10T00:32:54;94802.44;;;13.87;87.57
69171;BME280;56279;47.902;12.308;2023-05-10T00:34:55;94807.44;;;13.88;87.50
69171;BME280;56279;47.902;12.308;2023-05-10T00:36:56;94814.31;;;13.90;87.85
69171;BME280;56279;47.902;12.308;2023-05-10T00:38:58;94807.44;;;13.88;87.83
69171;BME280;56279;47.902;12.308;2023-05-10T00:40:59;94809.00;;;13.90;88.01
69171;BME280;56279;47.902;12.308;2023-05-10T00:43:04;94801.53;;;13.92;87.82
69171;BME280;56279;47.902;12.308;2023-05-10T00:45:06;94811.84;;;13.93;87.82
69171;BME280;56279;47.902;12.308;2023-05-10T00:47:08;94800.13;;;13.94;88.02
69171;BME280;56279;47.902;12.308;2023-05-10T00:49:10;94798.72;;;13.97;88.03
69171;BME280;56279;47.902;12.308;2023-05-10T00:51:11;94803.25;;;13.96;87.79
69171;BME280;56279;47.902;12.308;2023-05-10T00:53:14;94805.09;;;13.96;88.05
69171;BME280;56279;47.902;12.308;2023-05-10T00:55:16;94795.28;;;13.96;87.86
69171;BME280;56279;47.902;12.308;2023-05-10T00:57:17;94802.47;;;13.96;88.19
69171;BME280;56279;47.902;12.308;2023-05-10T00:59:19;94798.72;;;13.97;88.25
69171;BME280;56279;47.902;12.308;2023-05-10T01:01:22;94795.00;;;13.98;88.39
69171;BME280;56279;47.902;12.308;2023-05-10T01:03:24;94794.66;;;13.99;88.09
69171;BME280;56279;47.902;12.308;2023-05-10T01:05:26;94793.28;;;14.02;88.34
69171;BME280;56279;47.902;12.308;2023-05-10T01:07:28;94797.47;;;14.03;88.51
69171;BME280;56279;47.902;12.308;2023-05-10T01:09:29;94784.69;;;14.05;88.06
69171;BME280;56279;47.902;12.308;2023-05-10T01:11:31;94795.78;;;14.07;88.28
69171;BME280;56279;47.902;12.308;2023-05-10T01:13:38;94796.53;;;14.07;88.43
69171;BME280;56279;47.902;12.308;2023-05-10T01:15:41;94799.97;;;14.08;88.48
69171;BME280;56279;47.902;12.308;2023-05-10T01:17:44;94794.66;;;14.08;88.51
69171;BME280;56279;47.902;12.308;2023-05-10T01:19:47;94798.91;;;14.09;88.68
69171;BME280;56279;47.902;12.308;2023-05-10T01:28:57;94787.31;;;13.96;88.40
69171;BME280;56279;47.902;12.308;2023-05-10T01:35:36;94801.06;;;13.90;89.00
69171;BME280;56279;47.902;12.308;2023-05-10T01:37:42;94798.25;;;13.86;89.25
69171;BME280;56279;47.902;12.308;2023-05-10T01:41:54;94799.66;;;13.83;89.54
69171;BME280;56279;47.902;12.308;2023-05-10T01:44:07;94803.22;;;13.79;89.69
69171;BME280;56279;47.902;12.308;2023-05-10T01:46:16;94802.59;;;13.73;89.57
69171;BME280;56279;47.902;12.308;2023-05-10T01:48:19;94795.56;;;13.69;89.92
69171;BME280;56279;47.902;12.308;2023-05-10T01:50:25;94795.69;;;13.64;90.21
69171;BME280;56279;47.902;12.308;2023-05-10T01:52:34;94796.63;;;13.59;90.37
69171;BME280;56279;47.902;12.308;2023-05-10T01:54:44;94797.69;;;13.58;90.61
69171;BME280;56279;47.902;12.308;2023-05-10T01:56:56;94796.16;;;13.57;90.50
69171;BME280;56279;47.902;12.308;2023-05-10T01:59:06;94799.88;;;13.56;90.55
69171;BME280;56279;47.902;12.308;2023-05-10T02:01:09;94799.88;;;13.56;91.13
69171;BME280;56279;47.902;12.308;2023-05-10T02:03:11;94803.63;;;13.55;91.07
69171;BME280;56279;47.902;12.308;2023-05-10T02:05:15;94797.06;;;13.53;91.04
69171;BME280;56279;47.902;12.308;2023-05-10T02:07:17;94795.50;;;13.52;91.10
69171;BME280;56279;47.902;12.308;2023-05-10T02:09:20;94798.47;;;13.50;91.21
69171;BME280;56279;47.902;12.308;2023-05-10T02:11:23;94800.34;;;13.50;91.05
69171;BME280;56279;47.902;12.308;2023-05-10T02:13:27;94802.19;;;13.49;91.27
69171;BME280;56279;47.902;12.308;2023-05-10T02:15:32;94802.19;;;13.49;91.37
69171;BME280;56279;47.902;12.308;2023-05-10T02:17:37;94801.44;;;13.49;91.29
69171;BME280;56279;47.902;12.308;2023-05-10T02:19:41;94802.50;;;13.48;91.30
69171;BME280;56279;47.902;12.308;2023-05-10T02:21:43;94809.69;;;13.47;91.42
69171;BME280;56279;47.902;12.308;2023-05-10T02:23:48;94806.25;;;13.47;91.31
69171;BME280;56279;47.902;12.308;2023-05-10T02:25:53;94800.47;;;13.45;91.19
69171;BME280;56279;47.902;12.308;2023-05-10T02:27:56;94795.47;;;13.43;91.30
69171;BME280;56279;47.902;12.308;2023-05-10T02:29:59;94801.09;;;13.42;91.58
69171;BME280;56279;47.902;12.308;2023-05-10T02:32:01;94801.84;;;13.42;91.37
69171;BME280;56279;47.902;12.308;2023-05-10T02:34:05;94796.09;;;13.40;91.82
69171;BME280;56279;47.902;12.308;2023-05-10T02:36:09;94804.34;;;13.39;91.99
69171;BME280;56279;47.902;12.308;2023-05-10T02:38:11;94797.47;;;13.38;92.12
69171;BME280;56279;47.902;12.308;2023-05-10T02:40:15;94804.66;;;13.37;92.04
69171;BME280;56279;47.902;12.308;2023-05-10T02:42:20;94803.09;;;13.36;91.74
69171;BME280;56279;47.902;12.308;2023-05-10T02:44:23;94804.16;;;13.35;91.64
69171;BME280;56279;47.902;12.308;2023-05-10T02:46:28;94802.63;;;13.34;91.92
69171;BME280;56279;47.902;12.308;2023-05-10T02:48:30;94799.50;;;13.32;91.65
69171;BME280;56279;47.902;12.308;2023-05-10T02:50:33;94808.53;;;13.31;91.79
69171;BME280;56279;47.902;12.308;2023-05-10T02:52:50;94802.75;;;13.29;91.51
69171;BME280;56279;47.902;12.308;2023-05-10T02:55:01;94798.53;;;13.28;91.83
69171;BME280;56279;47.902;12.308;2023-05-10T02:57:05;94797.47;;;13.29;91.92
69171;BME280;56279;47.902;12.308;2023-05-10T02:59:08;94795.88;;;13.28;92.00
69171;BME280;56279;47.902;12.308;2023-05-10T03:01:09;94803.81;;;13.28;92.06
69171;BME280;56279;47.902;12.308;2023-05-10T03:03:10;94807.59;;;13.27;92.16
69171;BME280;56279;47.902;12.308;2023-05-10T03:05:12;94802.28;;;13.27;92.00
69171;BME280;56279;47.902;12.308;2023-05-10T03:07:14;94804.47;;;13.25;92.05
69171;BME280;56279;47.902;12.308;2023-05-10T03:09:16;94811.63;;;13.25;91.98
69171;BME280;56279;47.902;12.308;2023-05-10T03:13:32;94810.38;;;13.22;92.08
69171;BME280;56279;47.902;12.308;2023-05-10T03:16:01;94809.41;;;13.18;91.99
69171;BME280;56279;47.902;12.308;2023-05-10T03:20:48;94807.69;;;13.13;92.18
69171;BME280;56279;47.902;12.308;2023-05-10T03:22:55;94809.53;;;13.13;91.97
69171;BME280;56279;47.902;12.308;2023-05-10T03:25:05;94810.63;;;13.12;92.18
69171;BME280;56279;47.902;12.308;2023-05-10T03:27:08;94814.84;;;13.13;91.96
69171;BME280;56279;47.902;12.308;2023-05-10T03:29:12;94820.16;;;13.13;92.06
69171;BME280;56279;47.902;12.308;2023-05-10T03:31:15;94812.50;;;13.11;92.45
69171;BME280;56279;47.902;12.308;2023-05-10T03:33:18;94822.31;;;13.11;92.41
69171;BME280;56279;47.902;12.308;2023-05-10T03:35:21;94811.72;;;13.11;92.54
69171;BME280;56279;47.902;12.308;2023-05-10T03:37:22;94815.44;;;13.10;92.26
69171;BME280;56279;47.902;12.308;2023-05-10T03:39:24;94818.88;;;13.10;92.57
69171;BME280;56279;47.902;12.308;2023-05-10T03:41:29;94821.22;;;13.12;92.43
69171;BME280;56279;47.902;12.308;2023-05-10T03:43:31;94823.88;;;13.12;92.61
69171;BME280;56279;47.902;12.308;2023-05-10T03:45:33;94821.22;;;13.12;92.80
69171;BME280;56279;47.902;12.308;2023-05-10T03:47:34;94825.44;;;13.13;92.38
69171;BME280;56279;47.902;12.308;2023-05-10T03:49:37;94826.50;;;13.12;92.69
69171;BME280;56279;47.902;12.308;2023-05-10T03:51:38;94832.91;;;13.11;92.77
69171;BME280;56279;47.902;12.308;2023-05-10T03:53:40;94831.81;;;13.12;92.77
69171;BME280;56279;47.902;12.308;2023-05-10T03:55:41;94834.00;;;13.10;92.54
69171;BME280;56279;47.902;12.308;2023-05-10T03:57:43;94834.00;;;13.10;92.73
69171;BME280;56279;47.902;12.308;2023-05-10T03:59:44;94844.13;;;13.08;92.55
69171;BME280;56279;47.902;12.308;2023-05-10T04:01:46;94844.13;;;13.08;92.56
69171;BME280;56279;47.902;12.308;2023-05-10T04:03:47;94839.88;;;13.07;92.52
69171;BME280;56279;47.902;12.308;2023-05-10T04:05:48;94836.72;;;13.05;92.72
69171;BME280;56279;47.902;12.308;2023-05-10T04:07:49;94846.84;;;13.03;92.85
69171;BME280;56279;47.902;12.308;2023-05-10T04:09:51;94846.38;;;13.01;93.12
69171;BME280;56279;47.902;12.308;2023-05-10T04:11:53;94839.34;;;12.96;93.03
69171;BME280;56279;47.902;12.308;2023-05-10T04:13:55;94847.28;;;12.96;93.07
69171;BME280;56279;47.902;12.308;2023-05-10T04:15:56;94844.94;;;12.95;93.03
69171;BME280;56279;47.902;12.308;2023-05-10T04:17:57;94843.38;;;12.94;93.20
69171;BME280;56279;47.902;12.308;2023-05-10T04:19:58;94849.47;;;12.94;93.65
69171;BME280;56279;47.902;12.308;2023-05-10T04:22:00;94843.38;;;12.94;93.39
69171;BME280;56279;47.902;12.308;2023-05-10T04:24:03;94850.53;;;12.93;93.37
69171;BME280;56279;47.902;12.308;2023-05-10T04:26:05;94857.41;;;12.94;93.68
69171;BME280;56279;47.902;12.308;2023-05-10T04:28:06;94852.91;;;12.95;93.63
69171;BME280;56279;47.902;12.308;2023-05-10T04:30:07;94859.75;;;12.96;93.46
69171;BME280;56279;47.902;12.308;2023-05-10T04:32:09;94851.00;;;12.95;93.73
69171;BME280;56279;47.902;12.308;2023-05-10T04:34:11;94851.31;;;12.94;93.79
69171;BME280;56279;47.902;12.308;2023-05-10T04:36:12;94852.13;;;12.94;93.72
69171;BME280;56279;47.902;12.308;2023-05-10T04:38:13;94860.22;;;12.98;93.65
69171;BME280;56279;47.902;12.308;2023-05-10T04:40:14;94857.56;;;12.98;93.65
69171;BME280;56279;47.902;12.308;2023-05-10T04:42:17;94859.63;;;13.01;93.96
69171;BME280;56279;47.902;12.308;2023-05-10T04:44:18;94864.03;;;13.05;93.94
69171;BME280;56279;47.902;12.308;2023-05-10T04:46:19;94860.00;;;13.08;93.83
69171;BME280;56279;47.902;12.308;2023-05-10T04:48:20;94870.47;;;13.13;93.81
69171;BME280;56279;47.902;12.308;2023-05-10T04:50:22;94864.59;;;13.16;93.57
69171;BME280;56279;47.902;12.308;2023-05-10T04:52:23;94869.25;;;13.19;93.56
69171;BME280;56279;47.902;12.308;2023-05-10T04:54:24;94860.72;;;13.22;93.28
69171;BME280;56279;47.902;12.308;2023-05-10T04:56:25;94869.59;;;13.26;93.30
69171;BME280;56279;47.902;12.308;2023-05-10T04:58:27;94868.22;;;13.29;93.34
69171;BME280;56279;47.902;12.308;2023-05-10T05:00:28;94865.28;;;13.30;93.42
69171;BME280;56279;47.902;12.308;2023-05-10T05:02:30;94863.09;;;13.32;93.48
69171;BME280;56279;47.902;12.308;2023-05-10T05:04:31;94863.59;;;13.34;93.13
69171;BME280;56279;47.902;12.308;2023-05-10T05:06:33;94870.16;;;13.37;93.13
69171;BME280;56279;47.902;12.308;2023-05-10T05:08:34;94867.97;;;13.39;93.16
69171;BME280;56279;47.902;12.308;2023-05-10T05:10:35;94870.31;;;13.40;93.18
69171;BME280;56279;47.902;12.308;2023-05-10T05:12:36;94873.44;;;13.42;93.02
69171;BME280;56279;47.902;12.308;2023-05-10T05:14:38;94872.34;;;13.43;93.16
69171;BME280;56279;47.902;12.308;2023-05-10T05:16:39;94871.75;;;13.46;93.04
69171;BME280;56279;47.902;12.308;2023-05-10T05:18:41;94871.44;;;13.48;93.23
69171;BME280;56279;47.902;12.308;2023-05-10T05:20:42;94874.56;;;13.50;92.74
69171;BME280;56279;47.902;12.308;2023-05-10T05:22:43;94872.38;;;13.52;92.91
69171;BME280;56279;47.902;12.308;2023-05-10T05:24:45;94874.75;;;13.53;92.80
69171;BME280;56279;47.902;12.308;2023-05-10T05:26:46;94877.56;;;13.57;92.79
69171;BME280;56279;47.902;12.308;2023-05-10T05:28:48;94880.38;;;13.60;92.82
69171;BME280;56279;47.902;12.308;2023-05-10T05:30:50;94876.94;;;13.60;92.31
69171;BME280;56279;47.902;12.308;2023-05-10T05:33:09;94882.25;;;13.60;92.23
69171;BME280;56279;47.902;12.308;2023-05-10T05:35:29;94883.50;;;13.62;92.32
69171;BME280;56279;47.902;12.308;2023-05-10T05:37:31;94883.19;;;13.64;92.36
69171;BME280;56279;47.902;12.308;2023-05-10T05:39:32;94882.88;;;13.65;92.15
69171;BME280;56279;47.902;12.308;2023-05-10T05:41:33;94882.13;;;13.65;92.31
69171;BME280;56279;47.902;12.308;2023-05-10T05:43:35;94886.94;;;13.63;92.21
69171;BME280;56279;47.902;12.308;2023-05-10T05:45:36;94888.63;;;13.59;92.11
69171;BME280;56279;47.902;12.308;2023-05-10T05:47:38;94885.81;;;13.55;92.22
69171;BME280;56279;47.902;12.308;2023-05-10T05:49:40;94895.44;;;13.51;92.60
69171;BME280;56279;47.902;12.308;2023-05-10T05:51:41;94892.97;;;13.46;92.64
69171;BME280;56279;47.902;12.308;2023-05-10T05:53:43;94897.41;;;13.37;92.93
69171;BME280;56279;47.902;12.308;2023-05-10T05:55:51;94900.22;;;13.32;92.86
69171;BME280;56279;47.902;12.308;2023-05-10T05:57:53;94898.47;;;13.28;93.72
69171;BME280;56279;47.902;12.308;2023-05-10T05:59:56;94906.72;;;13.26;93.38
69171;BME280;56279;47.902;12.308;2023-05-10T06:01:58;94899.84;;;13.25;93.35
69171;BME280;56279;47.902;12.308;2023-05-10T06:03:59;94898.94;;;13.30;93.63
69171;BME280;56279;47.902;12.308;2023-05-10T06:06:00;94907.84;;;13.34;93.69
69171;BME280;56279;47.902;12.308;2023-05-10T06:08:02;94900.06;;;13.37;93.53
69171;BME280;56279;47.902;12.308;2023-05-10T06:10:03;94905.22;;;13.42;93.58
69171;BME280;56279;47.902;12.308;2023-05-10T06:12:05;94909.47;;;13.43;93.36
69171;BME280;56279;47.902;12.308;2023-05-10T06:14:06;94909.94;;;13.45;93.34
69171;BME280;56279;47.902;12.308;2023-05-10T06:16:08;94913.06;;;13.47;93.36
69171;BME280;56279;47.902;12.308;2023-05-10T06:18:10;94918.09;;;13.49;93.55
69171;BME280;56279;47.902;12.308;2023-05-10T06:20:11;94917.94;;;13.54;93.33
69171;BME280;56279;47.902;12.308;2023-05-10T06:22:13;94919.97;;;13.57;93.01
69171;BME280;56279;47.902;12.308;2023-05-10T06:24:14;94929.03;;;13.56;92.85
69171;BME280;56279;47.902;12.308;2023-05-10T06:26:15;94923.22;;;13.54;92.97
69171;BME280;56279;47.902;12.308;2023-05-10T06:28:16;94931.34;;;13.49;92.80
69171;BME280;56279;47.902;12.308;2023-05-10T06:30:18;94928.81;;;13.44;93.27
69171;BME280;56279;47.902;12.308;2023-05-10T06:32:19;94928.16;;;13.38;93.30
69171;BME280;56279;47.902;12.308;2023-05-10T06:34:20;94934.50;;;13.37;93.39
69171;BME280;56279;47.902;12.308;2023-05-10T06:36:21;94934.84;;;13.36;93.57
69171;BME280;56279;47.902;12.308;2023-05-10T06:38:24;94939.06;;;13.37;93.59
69171;BME280;56279;47.902;12.308;2023-05-10T06:40:25;94939.81;;;13.37;93.39
69171;BME280;56279;47.902;12.308;2023-05-10T06:42:26;94950.25;;;13.34;93.66
69171;BME280;56279;47.902;12.308;2023-05-10T06:44:28;94942.63;;;13.32;93.83
69171;BME280;56279;47.902;12.308;2023-05-10T06:46:29;94949.78;;;13.32;93.64
69171;BME280;56279;47.902;12.308;2023-05-10T06:48:31;94948.50;;;13.29;94.07
69171;BME280;56279;47.902;12.308;2023-05-10T06:50:32;94947.56;;;13.25;94.18
69171;BME280;56279;47.902;12.308;2023-05-10T06:52:34;94940.22;;;13.22;94.21
69171;BME280;56279;47.902;12.308;2023-05-10T06:54:40;94946.09;;;13.19;94.04
69171;BME280;56279;47.902;12.308;2023-05-10T06:56:41;94950.63;;;13.18;94.24
69171;BME280;56279;47.902;12.308;2023-05-10T06:58:43;94954.16;;;13.14;94.30
69171;BME280;56279;47.902;12.308;2023-05-10T07:00:44;94958.50;;;13.10;94.31
69171;BME280;56279;47.902;12.308;2023-05-10T07:02:46;94956.44;;;13.07;94.44
69171;BME280;56279;47.902;12.308;2023-05-10T07:04:48;94958.59;;;13.05;94.53
69171;BME280;56279;47.902;12.308;2023-05-10T07:06:49;94976.66;;;13.03;94.58
69171;BME280;56279;47.902;12.308;2023-05-10T07:08:50;94972.25;;;12.98;93.97
69171;BME280;56279;47.902;12.308;2023-05-10T07:10:51;94978.47;;;12.94;93.87
69171;BME280;56279;47.902;12.308;2023-05-10T07:12:53;94974.53;;;12.91;93.63
69171;BME280;56279;47.902;12.308;2023-05-10T07:14:54;94980.63;;;12.92;93.20
69171;BME280;56279;47.902;12.308;2023-05-10T07:16:55;94979.66;;;12.88;92.82
69171;BME280;56279;47.902;12.308;2023-05-10T07:18:56;94981.84;;;12.86;92.68
69171;BME280;56279;47.902;12.308;2023-05-10T07:20:58;94987.91;;;12.86;92.75
69171;BME280;56279;47.902;12.308;2023-05-10T07:22:59;94986.81;;;12.87;92.75
69171;BME280;56279;47.902;12.308;2023-05-10T07:25:00;94999.47;;;12.90;92.61
69171;BME280;56279;47.902;12.308;2023-05-10T07:27:01;94983.28;;;12.92;92.64
69171;BME280;56279;47.902;12.308;2023-05-10T07:29:03;94988.25;;;12.93;92.03
69171;BME280;56279;47.902;12.308;2023-05-10T07:31:04;94984.53;;;12.94;91.93
69171;BME280;56279;47.902;12.308;2023-05-10T07:33:05;94984.81;;;12.93;91.76
69171;BME280;56279;47.902;12.308;2023-05-10T07:35:07;94998.06;;;12.93;92.17
69171;BME280;56279;47.902;12.308;2023-05-10T07:37:09;94990.63;;;12.95;91.75
69171;BME280;56279;47.902;12.308;2023-05-10T07:39:10;94990.00;;;12.98;91.76
69171;BME280;56279;47.902;12.308;2023-05-10T07:41:11;94993.66;;;13.02;91.52
69171;BME280;56279;47.902;12.308;2023-05-10T07:43:13;94990.22;;;13.01;91.44
69171;BME280;56279;47.902;12.308;2023-05-10T07:45:14;94996.78;;;13.04;91.81
69171;BME280;56279;47.902;12.308;2023-05-10T07:47:15;94998.25;;;13.10;91.49
69171;BME280;56279;47.902;12.308;2023-05-10T07:49:17;95002.47;;;13.11;91.20
69171;BME280;56279;47.902;12.308;2023-05-10T07:51:18;95002.66;;;13.14;91.18
69171;BME280;56279;47.902;12.308;2023-05-10T07:53:21;95011.38;;;13.15;91.20
69171;BME280;56279;47.902;12.308;2023-05-10T07:55:23;95011.88;;;13.17;91.09
69171;BME280;56279;47.902;12.308;2023-05-10T07:57:24;95010.50;;;13.20;90.82
69171;BME280;56279;47.902;12.308;2023-05-10T07:59:25;95010.97;;;13.22;90.99
69171;BME280;56279;47.902;12.308;2023-05-10T08:01:30;95012.72;;;13.26;91.23
69171;BME280;56279;47.902;12.308;2023-05-10T08:03:31;95014.19;;;13.32;91.09
69171;BME280;56279;47.902;12.308;2023-05-10T08:05:32;95015.63;;;13.38;90.81
69171;BME280;56279;47.902;12.308;2023-05-10T08:07:34;95012.84;;;13.43;90.93
69171;BME280;56279;47.902;12.308;2023-05-10T08:09:35;95013.53;;;13.49;90.60
69171;BME280;56279;47.902;12.308;2023-05-10T08:11:36;95022.31;;;13.58;90.53
69171;BME280;56279;47.902;12.308;2023-05-10T08:13:38;95021.28;;;13.67;90.45
69171;BME280;56279;47.902;12.308;2023-05-10T08:15:39;95024.75;;;13.76;90.38
69171;BME280;56279;47.902;12.308;2023-05-10T08:17:40;95029.31;;;13.84;89.89
69171;BME280;56279;47.902;12.308;2023-05-10T08:19:41;95025.63;;;13.94;89.29
69171;BME280;56279;47.902;12.308;2023-05-10T08:21:43;95018.00;;;14.01;89.18
69171;BME280;56279;47.902;12.308;2023-05-10T08:23:44;95026.97;;;14.14;89.03
69171;BME280;56279;47.902;12.308;2023-05-10T08:25:45;95026.31;;;14.30;88.77
69171;BME280;56279;47.902;12.308;2023-05-10T08:27:46;95021.81;;;14.48;88.38
69171;BME280;56279;47.902;12.308;2023-05-10T08:29:48;95025.00;;;14.67;87.67
69171;BME280;56279;47.902;12.308;2023-05-10T08:31:50;95027.22;;;14.82;87.05
69171;BME280;56279;47.902;12.308;2023-05-10T08:33:51;95029.09;;;14.90;86.52
69171;BME280;56279;47.902;12.308;2023-05-10T08:35:53;95028.97;;;14.95;86.46
69171;BME280;56279;47.902;12.308;2023-05-10T08:37:54;95030.84;;;15.03;86.51
69171;BME280;56279;47.902;12.308;2023-05-10T08:39:56;95030.53;;;15.13;86.08
69171;BME280;56279;47.902;12.308;2023-05-10T08:42:01;95023.66;;;15.21;86.50
69171;BME280;56279;47.902;12.308;2023-05-10T08:44:04;95027.72;;;15.27;86.35
69171;BME280;56279;47.902;12.308;2023-05-10T08:46:07;95029.31;;;15.28;86.49
69171;BME280;56279;47.902;12.308;2023-05-10T08:48:10;95031.16;;;15.28;86.65
69171;BME280;56279;47.902;12.308;2023-05-10T08:50:13;95030.06;;;15.20;86.18
69171;BME280;56279;47.902;12.308;2023-05-10T08:52:16;95027.41;;;15.11;86.85
69171;BME280;56279;47.902;12.308;2023-05-10T08:54:21;95029.28;;;15.02;86.84
69171;BME280;56279;47.902;12.308;2023-05-10T08:56:23;95031.31;;;14.97;87.06
69171;BME280;56279;47.902;12.308;2023-05-10T08:58:25;95033.50;;;14.95;87.16
69171;BME280;56279;47.902;12.308;2023-05-10T09:00:27;95032.09;;;14.89;87.29
69171;BME280;56279;47.902;12.308;2023-05-10T09:02:30;95036.75;;;14.83;87.49
69171;BME280;56279;47.902;12.308;2023-05-10T09:04:31;95034.72;;;14.80;87.38
69171;BME280;56279;47.902;12.308;2023-05-10T09:06:33;95031.44;;;14.83;87.25
69171;BME280;56279;47.902;12.308;2023-05-10T09:08:34;95031.44;;;14.92;87.36
69171;BME280;56279;47.902;12.308;2023-05-10T09:10:38;95032.88;;;15.06;87.08
69171;BME280;56279;47.902;12.308;2023-05-10T09:12:40;95036.03;;;15.26;86.42
69171;BME280;56279;47.902;12.308;2023-05-10T09:14:44;95032.13;;;15.49;86.00
69171;BME280;56279;47.902;12.308;2023-05-10T09:16:45;95028.03;;;15.77;85.05
69171;BME280;56279;47.902;12.308;2023-05-10T09:18:48;95029.38;;;16.00;84.07
69171;BME280;56279;47.902;12.308;2023-05-10T09:20:50;95023.84;;;16.14;82.33
69171;BME280;56279;47.902;12.308;2023-05-10T09:22:51;95031.81;;;16.22;82.05
69171;BME280;56279;47.902;12.308;2023-05-10T09:25:13;95025.72;;;16.22;81.74
69171;BME280;56279;47.902;12.308;2023-05-10T09:27:15;95029.16;;;16.22;81.53
69171;BME280;56279;47.902;12.308;2023-05-10T09:29:16;95033.06;;;16.25;81.92
69171;BME280;56279;47.902;12.308;2023-05-10T09:31:17;95030.56;;;16.28;82.27
69171;BME280;56279;47.902;12.308;2023-05-10T09:33:18;95037.91;;;16.23;82.69
69171;BME280;56279;47.902;12.308;2023-05-10T09:35:22;95025.28;;;16.11;82.84
69171;BME280;56279;47.902;12.308;2023-05-10T09:37:30;95035.66;;;15.96;82.85
69171;BME280;56279;47.902;12.308;2023-05-10T09:39:36;95040.06;;;15.83;83.02
69171;BME280;56279;47.902;12.308;2023-05-10T09:41:38;95028.81;;;15.69;83.49
69171;BME280;56279;47.902;12.308;2023-05-10T09:43:39;95025.84;;;15.62;83.99
69171;BME280;56279;47.902;12.308;2023-05-10T09:45:41;95027.13;;;15.56;84.18
69171;BME280;56279;47.902;12.308;2023-05-10T09:47:42;95031.97;;;15.54;84.47
69171;BME280;56279;47.902;12.308;2023-05-10T09:49:44;95026.66;;;15.54;84.28
69171;BME280;56279;47.902;12.308;2023-05-10T09:51:46;95031.31;;;15.57;84.50
69171;BME280;56279;47.902;12.308;2023-05-10T09:54:09;95028.84;;;15.60;84.68
69171;BME280;56279;47.902;12.308;2023-05-10T09:56:10;95034.91;;;15.69;84.55
69171;BME280;56279;47.902;12.308;2023-05-10T09:58:14;95033.94;;;15.82;84.13
69171;BME280;56279;47.902;12.308;2023-05-10T10:00:19;95027.81;;;15.99;83.96
69171;BME280;56279;47.902;12.308;2023-05-10T10:02:20;95028.69;;;16.20;83.39
69171;BME280;56279;47.902;12.308;2023-05-10T10:04:22;95028.00;;;16.40;82.79
69171;BME280;56279;47.902;12.308;2023-05-10T10:06:24;95030.94;;;16.56;80.83
69171;BME280;56279;47.902;12.308;2023-05-10T10:08:25;95031.06;;;16.59;80.46
69171;BME280;56279;47.902;12.308;2023-05-10T10:10:28;95021.91;;;16.69;80.69
69171;BME280;56279;47.902;12.308;2023-05-10T10:12:30;95020.47;;;16.80;81.06
69171;BME280;56279;47.902;12.308;2023-05-10T10:14:32;95023.41;;;16.87;81.07
69171;BME280;56279;47.902;12.308;2023-05-10T10:16:33;95023.41;;;16.87;80.49
69171;BME280;56279;47.902;12.308;2023-05-10T10:18:36;95018.69;;;16.84;80.24
69171;BME280;56279;47.902;12.308;2023-05-10T10:20:39;95025.13;;;16.83;80.09
69171;BME280;56279;47.902;12.308;2023-05-10T10:22:41;95019.00;;;16.83;80.18
69171;BME280;56279;47.902;12.308;2023-05-10T10:24:45;95027.44;;;16.93;80.37
69171;BME280;56279;47.902;12.308;2023-05-10T10:26:46;95022.81;;;17.02;80.24
69171;BME280;56279;47.902;12.308;2023-05-10T10:31:15;95021.19;;;17.10;80.29
69171;BME280;56279;47.902;12.308;2023-05-10T10:35:26;95018.38;;;16.86;80.03
69171;BME280;56279;47.902;12.308;2023-05-10T10:37:47;95021.91;;;16.69;80.29
69171;BME280;56279;47.902;12.308;2023-05-10T10:39:49;95033.28;;;16.49;80.33
69171;BME280;56279;47.902;12.308;2023-05-10T10:41:55;95033.84;;;16.25;80.87
69171;BME280;56279;47.902;12.308;2023-05-10T10:46:26;95038.50;;;15.73;82.35
69171;BME280;56279;47.902;12.308;2023-05-10T10:48:27;95037.44;;;15.57;82.75
69171;BME280;56279;47.902;12.308;2023-05-10T10:50:28;95036.00;;;15.43;82.90
69171;BME280;56279;47.902;12.308;2023-05-10T10:52:39;95038.34;;;15.27;83.20
69171;BME280;56279;47.902;12.308;2023-05-10T10:54:41;95040.09;;;15.14;83.85
69171;BME280;56279;47.902;12.308;2023-05-10T10:56:44;95032.88;;;15.06;84.10
69171;BME280;56279;47.902;12.308;2023-05-10T10:58:49;95038.94;;;14.98;84.76
69171;BME280;56279;47.902;12.308;2023-05-10T11:01:18;95037.69;;;14.87;84.79
69171;BME280;56279;47.902;12.308;2023-05-10T11:03:19;95033.63;;;14.81;84.90
69171;BME280;56279;47.902;12.308;2023-05-10T11:05:43;95036.09;;;14.78;85.00
69171;BME280;56279;47.902;12.308;2023-05-10T11:07:55;95034.09;;;14.75;85.33